Terminal Aerodrome Forecast
Issued by NWS

Home | Current Version | Previous Version | Text Only | Print | Product List | Glossary On
Versions: 1 2 3 4 5 6 7 8 9 10 11 12 13
000
FTUS44 KEPZ 010000 CCA
TAFTCS
TAF COR
KTCS 010014Z 0100/0124 23005KT P6SM VCSH SCT035 BKN050 OVC250
     FM010400 30007KT P6SM VCSH SCT040 BKN140
     FM011000 31007KT P6SM SCT010 BKN025 BKN140
      TEMPO 0111/0115 3SM BR
     FM011700 03008KT P6SM BKN030 BKN080
     FM012100 03007KT P6SM SCT040 SCT200=

USA.gov is the U.S. government's official web portal to all federal, state and local government web resources and services.